Time;durP1;ratioP1;P1;durP2;ratioP2;P2;SDS_P1;SDS_P2;PMS_P1;PMS_P2;Temp;Humidity;BMP_temperature;BMP_pressure;BME280_temperature;BME280_humidity;BME280_pressure;Samples;Min_cycle;Max_cycle;Signal;HPM_P1;HPM_P2
2022/08/22 00:00:10;;;;;;;28.40;10.25;;;;;;;;;;4896978;29;20040;-84
2022/08/22 00:02:53;;;;;;;23.90;12.30;;;;;;;;;;4928489;29;20083;-84
2022/08/22 00:05:24;;;;;;;28.40;12.45;;;;;;;;;;4931938;29;20031;-84
2022/08/22 00:08:07;;;;;;;24.33;11.95;;;;;;;;;;4913006;29;20409;-83
2022/08/22 00:10:55;;;;;;;20.67;11.40;;;;;;;;;;4899217;29;20024;-83
2022/08/22 00:13:50;;;;;;;24.48;12.82;;;;;;;;;;4913411;29;20056;-84
2022/08/22 00:16:17;;;;;;;27.33;12.30;;;;;;;;;;4900193;29;20032;-83
2022/08/22 00:18:56;;;;;;;28.00;12.00;;;;;;;;;;4915482;29;20043;-83
2022/08/22 00:21:26;;;;;;;21.98;13.00;;;;;;;;;;4947739;29;20066;-83
2022/08/22 00:24:49;;;;;;;21.02;11.13;;;;;;;;;;4899071;29;20035;-83
2022/08/22 00:27:24;;;;;;;26.92;12.20;;;;;;;;;;4838974;29;20038;-83
2022/08/22 00:29:56;;;;;;;27.52;12.35;;;;;;;;;;4836260;29;20037;-83
2022/08/22 00:32:32;;;;;;;19.40;11.50;;;;;;;;;;4897573;29;20032;-83
2022/08/22 00:35:00;;;;;;;21.35;12.13;;;;;;;;;;4929718;29;20063;-83
2022/08/22 00:37:36;;;;;;;21.10;11.52;;;;;;;;;;4898623;29;20035;-84
2022/08/22 00:40:28;;;;;;;23.70;12.23;;;;;;;;;;4913337;29;20114;-84
2022/08/22 00:43:13;;;;;;;26.65;12.10;;;;;;;;;;4896283;29;20046;-85
2022/08/22 00:45:59;;;;;;;20.55;11.68;;;;;;;;;;4914221;29;20051;-84
2022/08/22 00:48:39;;;;;;;24.75;12.68;;;;;;;;;;4930946;29;20034;-85
2022/08/22 00:51:20;;;;;;;28.60;13.48;;;;;;;;;;4915697;29;20087;-84
2022/08/22 00:53:55;;;;;;;24.98;12.15;;;;;;;;;;4931710;29;20106;-83
2022/08/22 00:56:53;;;;;;;27.42;13.27;;;;;;;;;;4915957;29;20030;-85
2022/08/22 00:59:28;;;;;;;23.65;12.40;;;;;;;;;;4901313;29;20483;-85
2022/08/22 01:02:02;;;;;;;25.60;12.15;;;;;;;;;;4925061;29;20075;-85
2022/08/22 01:04:31;;;;;;;23.75;12.88;;;;;;;;;;4899562;29;20023;-84
2022/08/22 01:07:02;;;;;;;26.70;12.93;;;;;;;;;;4928554;29;20043;-85
2022/08/22 01:09:54;;;;;;;29.88;12.35;;;;;;;;;;4910494;29;20035;-84
2022/08/22 01:12:44;;;;;;;27.55;12.55;;;;;;;;;;4900390;29;20043;-84
2022/08/22 01:15:12;;;;;;;24.23;11.88;;;;;;;;;;4923630;29;20036;-83
2022/08/22 01:17:56;;;;;;;26.08;12.77;;;;;;;;;;4880099;29;20464;-83
2022/08/22 01:20:27;;;;;;;29.88;13.05;;;;;;;;;;4909748;29;20046;-84
2022/08/22 01:23:11;;;;;;;23.10;12.88;;;;;;;;;;4928030;29;20036;-84
2022/08/22 01:26:10;;;;;;;29.55;14.13;;;;;;;;;;4908273;29;20098;-84
2022/08/22 01:28:54;;;;;;;31.52;12.88;;;;;;;;;;4910815;29;20031;-85
2022/08/22 01:31:42;;;;;;;27.83;12.25;;;;;;;;;;4922515;29;20027;-84
2022/08/22 01:34:29;;;;;;;28.52;12.40;;;;;;;;;;4926953;29;20510;-84
2022/08/22 01:36:57;;;;;;;22.70;11.77;;;;;;;;;;4910670;29;20032;-84
2022/08/22 01:39:41;;;;;;;23.67;12.48;;;;;;;;;;4925864;29;20028;-85
2022/08/22 01:42:41;;;;;;;21.70;11.93;;;;;;;;;;4911086;29;20404;-85
2022/08/22 01:45:09;;;;;;;24.35;12.20;;;;;;;;;;4920294;29;20526;-84
2022/08/22 01:47:53;;;;;;;27.05;13.10;;;;;;;;;;4925512;29;20508;-85
2022/08/22 01:50:36;;;;;;;21.20;12.18;;;;;;;;;;4878898;29;20050;-84
2022/08/22 01:53:32;;;;;;;24.55;12.10;;;;;;;;;;4913235;29;20516;-84
2022/08/22 01:56:18;;;;;;;27.30;12.55;;;;;;;;;;4882968;29;20044;-85
2022/08/22 01:58:59;;;;;;;25.33;11.02;;;;;;;;;;4944268;29;20105;-84
2022/08/22 02:01:48;;;;;;;23.63;11.23;;;;;;;;;;4911843;29;20480;-84
2022/08/22 02:04:53;;;;;;;28.52;11.48;;;;;;;;;;4934074;29;20054;-83
2022/08/22 02:07:37;;;;;;;23.95;10.80;;;;;;;;;;4923656;28;20498;-82
2022/08/22 02:10:20;;;;;;;23.20;12.93;;;;;;;;;;4932294;29;20091;-82
2022/08/22 02:12:51;;;;;;;22.38;12.88;;;;;;;;;;4912537;29;20053;-84
2022/08/22 02:15:19;;;;;;;22.67;12.65;;;;;;;;;;4884106;29;20078;-82
2022/08/22 02:18:09;;;;;;;24.33;12.10;;;;;;;;;;4911650;29;20043;-83
2022/08/22 02:20:38;;;;;;;21.27;10.77;;;;;;;;;;4900860;29;20111;-82
2022/08/22 02:23:31;;;;;;;22.60;12.30;;;;;;;;;;4913827;29;20035;-83
2022/08/22 02:26:02;;;;;;;24.98;11.95;;;;;;;;;;4913649;29;20024;-83
2022/08/22 02:28:54;;;;;;;29.48;13.57;;;;;;;;;;4927365;29;20043;-83
2022/08/22 02:31:51;;;;;;;26.40;13.18;;;;;;;;;;4910948;29;20572;-82
2022/08/22 02:34:23;;;;;;;26.10;13.40;;;;;;;;;;4860144;29;20128;-83
2022/08/22 02:37:01;;;;;;;25.52;12.63;;;;;;;;;;4911540;29;20032;-83
2022/08/22 02:39:46;;;;;;;29.23;14.73;;;;;;;;;;4898879;29;20035;-83
2022/08/22 02:42:31;;;;;;;30.23;14.70;;;;;;;;;;4913481;29;20110;-84
2022/08/22 02:45:19;;;;;;;24.20;14.18;;;;;;;;;;4912342;29;20102;-84
2022/08/22 02:48:09;;;;;;;26.75;15.18;;;;;;;;;;4929586;29;20087;-83
2022/08/22 02:50:40;;;;;;;26.40;15.25;;;;;;;;;;4911341;29;20035;-84
2022/08/22 02:53:27;;;;;;;28.10;15.18;;;;;;;;;;4896922;29;21784;-84
2022/08/22 02:56:03;;;;;;;32.20;15.48;;;;;;;;;;4927091;29;20034;-83
2022/08/22 02:58:46;;;;;;;25.75;14.93;;;;;;;;;;4865748;29;20261;-83
2022/08/22 03:01:28;;;;;;;25.15;14.52;;;;;;;;;;4896236;29;20456;-82
2022/08/22 03:04:26;;;;;;;31.60;15.93;;;;;;;;;;4924783;29;20519;-82
2022/08/22 03:07:07;;;;;;;26.10;14.77;;;;;;;;;;4911932;29;20356;-83
2022/08/22 03:09:45;;;;;;;29.35;15.15;;;;;;;;;;4895203;29;20039;-83
2022/08/22 03:12:30;;;;;;;23.20;14.98;;;;;;;;;;4896212;29;20309;-83
2022/08/22 03:15:33;;;;;;;26.15;14.32;;;;;;;;;;4912289;29;20492;-83
2022/08/22 03:18:04;;;;;;;34.20;16.65;;;;;;;;;;4928598;29;20027;-84
2022/08/22 03:20:57;;;;;;;31.05;16.52;;;;;;;;;;4926168;29;20035;-83
2022/08/22 03:23:35;;;;;;;28.23;17.48;;;;;;;;;;4926419;29;20480;-84
2022/08/22 03:26:24;;;;;;;40.13;18.83;;;;;;;;;;4912129;29;20019;-83
2022/08/22 03:28:58;;;;;;;29.50;17.30;;;;;;;;;;4943518;29;21398;-83
2022/08/22 03:31:24;;;;;;;35.05;16.83;;;;;;;;;;4897675;29;20024;-83
2022/08/22 03:34:21;;;;;;;35.65;18.65;;;;;;;;;;4894505;29;20055;-84
2022/08/22 03:37:28;;;;;;;30.33;18.05;;;;;;;;;;4895621;29;20059;-82
2022/08/22 03:40:18;;;;;;;39.58;19.17;;;;;;;;;;4915070;29;20071;-83
2022/08/22 03:43:21;;;;;;;37.15;20.73;;;;;;;;;;4911737;29;20424;-84
2022/08/22 03:46:08;;;;;;;43.28;23.48;;;;;;;;;;4930096;29;20492;-84
2022/08/22 03:48:43;;;;;;;41.28;22.15;;;;;;;;;;4912956;29;20043;-84
2022/08/22 03:51:21;;;;;;;35.95;21.58;;;;;;;;;;4928371;29;20035;-83
2022/08/22 03:53:57;;;;;;;44.85;22.75;;;;;;;;;;4895246;29;20119;-83
2022/08/22 03:56:37;;;;;;;45.65;23.80;;;;;;;;;;4942707;28;20235;-83
2022/08/22 03:59:33;;;;;;;50.47;24.60;;;;;;;;;;4897079;29;20071;-83
2022/08/22 04:02:10;;;;;;;48.83;24.92;;;;;;;;;;4921436;29;20034;-84
2022/08/22 04:04:51;;;;;;;44.95;24.65;;;;;;;;;;4941969;28;20040;-83
2022/08/22 04:07:52;;;;;;;58.63;28.70;;;;;;;;;;4926014;29;20142;-84
2022/08/22 04:10:50;;;;;;;51.78;27.38;;;;;;;;;;4894244;29;20040;-84
2022/08/22 04:13:42;;;;;;;50.20;29.27;;;;;;;;;;4928995;29;20531;-83
2022/08/22 04:16:19;;;;;;;53.15;27.92;;;;;;;;;;4897535;29;20431;-83
2022/08/22 04:19:29;;;;;;;57.97;29.95;;;;;;;;;;4928934;29;20036;-83
2022/08/22 04:22:17;;;;;;;59.15;29.88;;;;;;;;;;4900880;29;20044;-84
2022/08/22 04:24:48;;;;;;;68.93;32.13;;;;;;;;;;4926877;29;20026;-85
2022/08/22 04:27:31;;;;;;;53.33;30.10;;;;;;;;;;4928047;29;20027;-85
2022/08/22 04:30:12;;;;;;;61.50;30.38;;;;;;;;;;4927322;29;20542;-85
2022/08/22 04:32:43;;;;;;;51.25;29.10;;;;;;;;;;4895137;29;20023;-84
2022/08/22 04:35:26;;;;;;;56.15;29.27;;;;;;;;;;4896467;29;20445;-84
2022/08/22 04:37:59;;;;;;;52.75;29.33;;;;;;;;;;4897532;29;20110;-84
2022/08/22 04:40:38;;;;;;;61.88;28.73;;;;;;;;;;4893768;29;20035;-84
2022/08/22 04:43:27;;;;;;;56.22;27.90;;;;;;;;;;4894761;29;20051;-84
2022/08/22 04:46:25;;;;;;;52.53;27.88;;;;;;;;;;4912046;29;20048;-84
2022/08/22 04:48:54;;;;;;;44.65;27.30;;;;;;;;;;4928751;29;20052;-84
2022/08/22 04:51:30;;;;;;;56.72;28.48;;;;;;;;;;4878564;29;20032;-85
2022/08/22 04:54:11;;;;;;;43.95;26.60;;;;;;;;;;4896292;29;20062;-84
2022/08/22 04:56:59;;;;;;;50.60;26.30;;;;;;;;;;4928688;29;20066;-84
2022/08/22 04:59:25;;;;;;;42.35;23.55;;;;;;;;;;4938113;29;20024;-83
2022/08/22 05:01:58;;;;;;;45.47;24.27;;;;;;;;;;4910359;29;20119;-82
2022/08/22 05:04:28;;;;;;;;;;;;;;;;;;4893721;29;20364;-84
2022/08/22 05:06:57;;;;;;;39.25;22.10;;;;;;;;;;4926368;29;20318;-84
2022/08/22 05:09:25;;;;;;;40.70;22.00;;;;;;;;;;4942831;29;20107;-82
2022/08/22 05:11:52;;;;;;;37.47;21.00;;;;;;;;;;4922869;29;20043;-83
2022/08/22 05:14:26;;;;;;;39.17;20.70;;;;;;;;;;4862585;29;20112;-83
2022/08/22 05:16:52;;;;;;;37.40;20.83;;;;;;;;;;4897170;29;20716;-83
2022/08/22 05:19:24;;;;;;;30.95;18.73;;;;;;;;;;4879790;29;20114;-82
2022/08/22 05:21:49;;;;;;;33.60;18.80;;;;;;;;;;4927155;29;20035;-82
2022/08/22 05:24:31;;;;;;;36.22;19.10;;;;;;;;;;4895002;29;20062;-83
2022/08/22 05:26:56;;;;;;;32.03;19.02;;;;;;;;;;4911426;29;20054;-84
2022/08/22 05:29:25;;;;;;;28.77;18.73;;;;;;;;;;4926039;29;20032;-82
2022/08/22 05:32:02;;;;;;;29.90;19.08;;;;;;;;;;4909614;29;20389;-84
2022/08/22 05:34:31;;;;;;;29.45;16.60;;;;;;;;;;4911257;29;20474;-83
2022/08/22 05:37:02;;;;;;;35.58;17.35;;;;;;;;;;4909113;29;20035;-82
2022/08/22 05:39:28;;;;;;;25.27;16.60;;;;;;;;;;4910190;29;20028;-82
2022/08/22 05:41:55;;;;;;;25.25;16.45;;;;;;;;;;4860354;29;20399;-82
2022/08/22 05:44:25;;;;;;;38.03;17.13;;;;;;;;;;4886478;29;20056;-82
2022/08/22 05:47:00;;;;;;;30.05;17.13;;;;;;;;;;4860381;29;20493;-82
2022/08/22 05:49:28;;;;;;;28.63;16.08;;;;;;;;;;4904275;29;20036;-82
2022/08/22 05:52:20;;;;;;;27.63;15.30;;;;;;;;;;4908490;29;20040;-82
2022/08/22 05:54:54;;;;;;;29.50;14.70;;;;;;;;;;4893693;29;20039;-81
2022/08/22 05:57:28;;;;;;;24.85;13.23;;;;;;;;;;4876626;29;20048;-81
2022/08/22 06:00:00;;;;;;;30.85;13.50;;;;;;;;;;4902771;29;20044;-81
2022/08/22 06:02:51;;;;;;;20.73;13.10;;;;;;;;;;4862284;29;20688;-81
2022/08/22 06:05:26;;;;;;;28.10;13.70;;;;;;;;;;4889063;29;21042;-81
2022/08/22 06:07:54;;;;;;;31.08;13.77;;;;;;;;;;4890477;29;20066;-80
2022/08/22 06:10:21;;;;;;;23.60;14.15;;;;;;;;;;4875987;29;20412;-80
2022/08/22 06:13:00;;;;;;;23.70;12.45;;;;;;;;;;4860544;29;20024;-81
2022/08/22 06:15:47;;;;;;;27.95;13.55;;;;;;;;;;4887058;29;20123;-81
2022/08/22 06:18:14;;;;;;;22.27;12.05;;;;;;;;;;4875656;29;20473;-81
2022/08/22 06:20:47;;;;;;;17.42;10.98;;;;;;;;;;4893401;29;20144;-82
2022/08/22 06:23:15;;;;;;;23.02;11.20;;;;;;;;;;4892668;29;20084;-82
2022/08/22 06:25:40;;;;;;;20.88;11.65;;;;;;;;;;4891354;29;20061;-84
2022/08/22 06:28:07;;;;;;;26.27;11.35;;;;;;;;;;4874940;29;20040;-82
2022/08/22 06:30:33;;;;;;;19.40;11.45;;;;;;;;;;4893005;29;20111;-83
2022/08/22 06:33:04;;;;;;;26.52;12.27;;;;;;;;;;4877056;29;20042;-83
2022/08/22 06:36:29;;;;;;;25.98;10.93;;;;;;;;;;4904191;29;20070;-82
2022/08/22 06:38:20;;;;;;;17.83;9.75;;;;;;;;;;4895906;29;20024;-82
2022/08/22 06:40:47;;;;;;;18.00;10.38;;;;;;;;;;4859176;29;20031;-82
2022/08/22 06:43:14;;;;;;;19.27;9.45;;;;;;;;;;4898410;29;20051;-82
2022/08/22 06:45:39;;;;;;;23.63;10.18;;;;;;;;;;4885407;29;20031;-82
2022/08/22 06:48:04;;;;;;;23.65;9.80;;;;;;;;;;4916308;29;20035;-82
2022/08/22 06:50:34;;;;;;;18.40;8.63;;;;;;;;;;4914309;29;20524;-81
2022/08/22 06:53:15;;;;;;;16.10;7.95;;;;;;;;;;4940093;29;20114;-83
2022/08/22 06:55:49;;;;;;;22.35;9.32;;;;;;;;;;4929643;29;20102;-82
2022/08/22 06:58:16;;;;;;;;;;;;;;;;;;4926171;29;20032;-82
2022/08/22 07:00:41;;;;;;;16.92;8.10;;;;;;;;;;4914936;29;19969;-81
2022/08/22 07:03:15;;;;;;;17.55;7.75;;;;;;;;;;4929710;29;20039;-82
2022/08/22 07:05:41;;;;;;;20.88;8.48;;;;;;;;;;4929339;29;20440;-82
2022/08/22 07:08:13;;;;;;;17.27;7.88;;;;;;;;;;4912247;29;20535;-83
2022/08/22 07:11:22;;;;;;;18.95;7.53;;;;;;;;;;4881984;29;20654;-82
2022/08/22 07:13:58;;;;;;;19.45;8.20;;;;;;;;;;4895833;29;20036;-82
2022/08/22 07:16:32;;;;;;;18.98;7.88;;;;;;;;;;4922589;29;20086;-82
2022/08/22 07:18:58;;;;;;;16.65;8.43;;;;;;;;;;4912544;29;20074;-81
2022/08/22 07:21:25;;;;;;;20.08;8.25;;;;;;;;;;4913313;29;20383;-81
2022/08/22 07:23:51;;;;;;;19.65;7.93;;;;;;;;;;4897641;29;20063;-81
2022/08/22 07:26:24;;;;;;;17.75;8.27;;;;;;;;;;4944470;29;20531;-81
2022/08/22 07:28:55;;;;;;;17.75;7.80;;;;;;;;;;4930859;29;20036;-81
2022/08/22 07:31:23;;;;;;;20.52;7.65;;;;;;;;;;4930548;29;20032;-82
2022/08/22 07:33:54;;;;;;;16.63;7.55;;;;;;;;;;4945055;29;20047;-82
2022/08/22 07:36:37;;;;;;;18.38;7.57;;;;;;;;;;4880072;29;20036;-82
2022/08/22 07:39:22;;;;;;;14.02;6.97;;;;;;;;;;4928645;29;20249;-82
2022/08/22 07:42:00;;;;;;;19.90;7.22;;;;;;;;;;4946509;29;20055;-83
2022/08/22 07:44:31;;;;;;;17.92;7.28;;;;;;;;;;4916840;29;20477;-83
2022/08/22 07:47:11;;;;;;;14.18;5.95;;;;;;;;;;4907294;29;20627;-83
2022/08/22 07:49:39;;;;;;;16.13;5.78;;;;;;;;;;4911112;29;20135;-83
2022/08/22 07:52:06;;;;;;;19.42;6.53;;;;;;;;;;4934105;29;20047;-84
2022/08/22 07:54:57;;;;;;;20.50;6.50;;;;;;;;;;4881250;29;20116;-84
2022/08/22 07:57:32;;;;;;;12.18;5.25;;;;;;;;;;4898165;29;20062;-84
2022/08/22 07:59:59;;;;;;;17.52;6.47;;;;;;;;;;4926212;29;20024;-84
2022/08/22 08:02:24;;;;;;;18.55;5.15;;;;;;;;;;4905251;29;20119;-83
2022/08/22 08:04:51;;;;;;;11.57;5.22;;;;;;;;;;4901226;29;20130;-82
2022/08/22 08:07:16;;;;;;;11.25;4.20;;;;;;;;;;4885133;29;20122;-82
2022/08/22 08:09:45;;;;;;;12.05;4.97;;;;;;;;;;4900504;29;20038;-83
2022/08/22 08:12:10;;;;;;;14.68;4.80;;;;;;;;;;4882333;29;20400;-84
2022/08/22 08:14:38;;;;;;;12.02;4.38;;;;;;;;;;4881498;29;20039;-82
2022/08/22 08:17:13;;;;;;;14.05;4.68;;;;;;;;;;4914438;29;20046;-83
2022/08/22 08:19:39;;;;;;;16.98;4.03;;;;;;;;;;4917175;29;20034;-84
2022/08/22 08:22:05;;;;;;;14.35;4.40;;;;;;;;;;4885266;29;20394;-84
2022/08/22 08:24:32;;;;;;;18.77;4.22;;;;;;;;;;4935082;29;20043;-83
2022/08/22 08:29:54;;;;;;;12.93;4.57;;;;;;;;;;4904073;29;20095;-83
2022/08/22 08:32:24;;;;;;;14.25;4.53;;;;;;;;;;4927545;29;20027;-84
2022/08/22 08:34:49;;;;;;;14.00;4.88;;;;;;;;;;4915963;29;20051;-83
2022/08/22 08:37:26;;;;;;;16.48;4.28;;;;;;;;;;4908482;29;20154;-83
2022/08/22 08:39:58;;;;;;;10.38;3.35;;;;;;;;;;4932993;29;20031;-89
2022/08/22 08:42:26;;;;;;;15.60;3.75;;;;;;;;;;4933310;29;20042;-90
2022/08/22 08:44:55;;;;;;;13.27;3.80;;;;;;;;;;4919377;29;20055;-89
2022/08/22 08:47:40;;;;;;;13.20;4.30;;;;;;;;;;4944556;29;20047;-87
2022/08/22 08:50:13;;;;;;;16.20;4.70;;;;;;;;;;4917859;29;20524;-88
2022/08/22 08:52:57;;;;;;;11.20;4.28;;;;;;;;;;4902809;29;20162;-88
2022/08/22 08:55:47;;;;;;;12.75;3.88;;;;;;;;;;4918598;29;20452;-89
2022/08/22 08:58:50;;;;;;;14.93;3.90;;;;;;;;;;4916605;29;20552;-88
2022/08/22 09:01:28;;;;;;;13.68;4.68;;;;;;;;;;4917306;29;20038;-87
2022/08/22 09:04:18;;;;;;;12.45;3.92;;;;;;;;;;4912655;29;20059;-88
2022/08/22 09:07:05;;;;;;;19.27;4.32;;;;;;;;;;4913122;29;20539;-88
2022/08/22 09:10:00;;;;;;;11.82;3.70;;;;;;;;;;4928502;29;20031;-88
2022/08/22 09:12:44;;;;;;;10.35;3.10;;;;;;;;;;4910830;29;20031;-88
2022/08/22 09:15:36;;;;;;;17.42;3.05;;;;;;;;;;4942143;28;20105;-89
2022/08/22 09:18:26;;;;;;;13.40;3.28;;;;;;;;;;4907379;29;20031;-88
2022/08/22 09:20:55;;;;;;;10.35;3.33;;;;;;;;;;4931210;29;20032;-88
2022/08/22 09:23:39;;;;;;;14.40;3.35;;;;;;;;;;4932979;29;20035;-89
2022/08/22 09:26:23;;;;;;;10.98;3.20;;;;;;;;;;4913219;29;20028;-88
2022/08/22 09:29:32;;;;;;;10.38;3.30;;;;;;;;;;4917089;29;20027;-88
2022/08/22 09:32:13;;;;;;;9.95;2.53;;;;;;;;;;4886818;29;20047;-88
2022/08/22 09:34:50;;;;;;;10.35;2.80;;;;;;;;;;4935170;29;20035;-89
2022/08/22 09:37:30;;;;;;;13.70;2.80;;;;;;;;;;4938292;29;20024;-87
2022/08/22 09:40:14;;;;;;;13.88;2.95;;;;;;;;;;4939665;28;20135;-86
2022/08/22 09:43:00;;;;;;;8.45;2.33;;;;;;;;;;4934230;29;20027;-88
2022/08/22 09:45:40;;;;;;;11.82;2.90;;;;;;;;;;4949931;29;20066;-88
2022/08/22 09:48:33;;;;;;;9.43;2.53;;;;;;;;;;4925530;29;20028;-87
2022/08/22 09:51:05;;;;;;;10.70;3.03;;;;;;;;;;4918848;29;20403;-87
2022/08/22 09:54:09;;;;;;;11.90;2.75;;;;;;;;;;4930144;29;20118;-88
2022/08/22 09:57:12;;;;;;;7.43;2.90;;;;;;;;;;4896675;29;20396;-88
2022/08/22 09:59:44;;;;;;;10.82;2.88;;;;;;;;;;4876471;29;20043;-87
2022/08/22 10:02:25;;;;;;;8.25;2.92;;;;;;;;;;4931299;29;20046;-89
2022/08/22 10:05:04;;;;;;;11.30;2.67;;;;;;;;;;4915060;29;20038;-89
2022/08/22 10:07:34;;;;;;;8.18;2.42;;;;;;;;;;4951488;28;20047;-89
2022/08/22 10:10:05;;;;;;;9.32;3.42;;;;;;;;;;4932330;29;20034;-90
2022/08/22 10:13:16;;;;;;;10.35;2.88;;;;;;;;;;4943535;29;20475;-89
2022/08/22 10:15:55;;;;;;;12.63;2.53;;;;;;;;;;4874491;29;20393;-90
2022/08/22 10:18:23;;;;;;;8.98;2.20;;;;;;;;;;4844464;29;20033;-86
2022/08/22 10:21:09;;;;;;;9.40;3.10;;;;;;;;;;4926453;29;20039;-87
2022/08/22 10:23:37;;;;;;;13.75;2.80;;;;;;;;;;4943064;29;20031;-87
2022/08/22 10:26:17;;;;;;;10.57;2.88;;;;;;;;;;4935365;29;20031;-87
2022/08/22 10:28:55;;;;;;;10.95;3.13;;;;;;;;;;4946763;29;20035;-87
2022/08/22 10:31:26;;;;;;;9.48;2.75;;;;;;;;;;4950687;29;20055;-86
2022/08/22 10:34:13;;;;;;;10.38;2.63;;;;;;;;;;4934074;29;20027;-87
2022/08/22 10:37:00;;;;;;;10.48;2.60;;;;;;;;;;4921384;29;20464;-87
2022/08/22 10:39:27;;;;;;;8.88;2.60;;;;;;;;;;4928143;29;20048;-89
2022/08/22 10:42:18;;;;;;;12.75;3.13;;;;;;;;;;4952446;28;20117;-89
2022/08/22 10:44:53;;;;;;;9.98;2.70;;;;;;;;;;4950580;28;20126;-89
2022/08/22 10:47:26;;;;;;;10.38;2.80;;;;;;;;;;4954439;28;20484;-87
2022/08/22 10:49:53;;;;;;;13.85;3.53;;;;;;;;;;4928284;29;20473;-87
2022/08/22 10:52:22;;;;;;;11.13;3.33;;;;;;;;;;4908345;29;20038;-88
2022/08/22 10:54:52;;;;;;;7.45;2.72;;;;;;;;;;4915871;29;20064;-89
2022/08/22 10:57:20;;;;;;;9.38;3.05;;;;;;;;;;4950081;29;20414;-90
2022/08/22 10:59:52;;;;;;;13.52;2.80;;;;;;;;;;4950398;29;20091;-87
2022/08/22 11:02:33;;;;;;;10.15;2.85;;;;;;;;;;4960234;28;20058;-86
2022/08/22 11:05:22;;;;;;;9.10;2.83;;;;;;;;;;4914837;29;20043;-86
2022/08/22 11:08:27;;;;;;;10.45;2.50;;;;;;;;;;4904067;29;20476;-86
2022/08/22 11:11:15;;;;;;;8.32;2.60;;;;;;;;;;4917505;29;20424;-88
2022/08/22 11:14:21;;;;;;;11.35;2.70;;;;;;;;;;4947857;29;20039;-86
2022/08/22 11:16:56;;;;;;;10.98;3.00;;;;;;;;;;4927308;29;20032;-86
2022/08/22 11:19:46;;;;;;;8.60;2.72;;;;;;;;;;4925604;29;20111;-85
2022/08/22 11:22:26;;;;;;;6.10;2.42;;;;;;;;;;4911521;29;20440;-87
2022/08/22 11:25:07;;;;;;;8.98;3.40;;;;;;;;;;4926811;29;20055;-87
2022/08/22 11:28:01;;;;;;;10.98;3.25;;;;;;;;;;4895759;29;20032;-86
2022/08/22 11:30:44;;;;;;;12.00;3.33;;;;;;;;;;4915630;29;20050;-86
2022/08/22 11:33:15;;;;;;;9.48;3.28;;;;;;;;;;4912599;29;20596;-86
2022/08/22 11:36:03;;;;;;;9.20;3.08;;;;;;;;;;4932275;29;20043;-86
2022/08/22 11:38:40;;;;;;;13.48;3.17;;;;;;;;;;4946582;29;20036;-86
2022/08/22 11:41:11;;;;;;;8.10;2.92;;;;;;;;;;4947796;29;20491;-86
2022/08/22 11:43:50;;;;;;;12.23;3.05;;;;;;;;;;4960482;28;20111;-87
2022/08/22 11:46:30;;;;;;;11.15;3.38;;;;;;;;;;4933720;29;20443;-87
2022/08/22 11:49:17;;;;;;;8.82;3.15;;;;;;;;;;4929504;29;20158;-86
2022/08/22 11:52:11;;;;;;;8.93;3.22;;;;;;;;;;4946519;29;20091;-85
2022/08/22 11:54:59;;;;;;;16.92;3.25;;;;;;;;;;4929093;29;20039;-85
2022/08/22 11:57:34;;;;;;;11.90;3.42;;;;;;;;;;4911916;29;20454;-86
2022/08/22 12:00:22;;;;;;;10.00;3.20;;;;;;;;;;4924087;29;21275;-86
2022/08/22 12:03:17;;;;;;;13.40;3.92;;;;;;;;;;4914437;29;20448;-87
2022/08/22 12:05:50;;;;;;;12.93;3.38;;;;;;;;;;4938071;28;20043;-86
2022/08/22 12:08:27;;;;;;;13.05;3.85;;;;;;;;;;4910964;29;20036;-86
2022/08/22 12:11:14;;;;;;;11.43;3.20;;;;;;;;;;4932382;29;20118;-88
2022/08/22 12:13:54;;;;;;;10.02;2.95;;;;;;;;;;4932096;29;20024;-86
2022/08/22 12:16:38;;;;;;;10.32;3.65;;;;;;;;;;4924739;29;20031;-85
2022/08/22 12:19:22;;;;;;;10.15;3.47;;;;;;;;;;4895304;29;20066;-88
2022/08/22 12:22:28;;;;;;;10.30;3.05;;;;;;;;;;4942874;29;20036;-87
2022/08/22 12:25:11;;;;;;;9.73;2.90;;;;;;;;;;4895892;29;20428;-86
2022/08/22 12:27:48;;;;;;;9.57;3.50;;;;;;;;;;4933247;29;20036;-86
2022/08/22 12:30:38;;;;;;;10.88;3.17;;;;;;;;;;4930849;29;20059;-87
2022/08/22 12:33:27;;;;;;;11.75;3.42;;;;;;;;;;4905862;29;20027;-86
2022/08/22 12:36:34;;;;;;;17.50;3.80;;;;;;;;;;4923275;29;20058;-87
2022/08/22 12:39:26;;;;;;;8.95;3.25;;;;;;;;;;4895749;29;20039;-87
2022/08/22 12:42:14;;;;;;;10.48;2.85;;;;;;;;;;4933063;29;20035;-87
2022/08/22 12:45:13;;;;;;;9.27;2.90;;;;;;;;;;4925790;29;20131;-87
2022/08/22 12:48:17;;;;;;;9.63;3.75;;;;;;;;;;4946153;29;20071;-87
2022/08/22 12:50:55;;;;;;;9.27;3.22;;;;;;;;;;4932656;29;20253;-87
2022/08/22 12:53:24;;;;;;;11.15;2.55;;;;;;;;;;4927906;29;20056;-87
2022/08/22 12:56:02;;;;;;;11.48;2.72;;;;;;;;;;4945609;29;20035;-86
2022/08/22 12:58:41;;;;;;;7.50;2.88;;;;;;;;;;4896660;29;20061;-88
2022/08/22 13:01:06;;;;;;;8.07;2.63;;;;;;;;;;4922743;29;20040;-88
2022/08/22 13:03:43;;;;;;;7.80;2.30;;;;;;;;;;4911881;29;20103;-88
2022/08/22 13:06:33;;;;;;;9.88;2.67;;;;;;;;;;4941507;29;20031;-87
2022/08/22 13:08:59;;;;;;;12.23;3.05;;;;;;;;;;4941992;29;20801;-88
2022/08/22 13:11:24;;;;;;;7.30;2.50;;;;;;;;;;4916632;29;20051;-88
2022/08/22 13:13:54;;;;;;;14.40;3.65;;;;;;;;;;4920367;29;20069;-88
2022/08/22 13:16:19;;;;;;;12.57;2.80;;;;;;;;;;4950406;29;20122;-89
2022/08/22 13:19:17;;;;;;;11.43;3.47;;;;;;;;;;4949768;29;20103;-89
2022/08/22 13:21:45;;;;;;;9.52;3.17;;;;;;;;;;4945725;28;20064;-87
2022/08/22 13:24:14;;;;;;;8.73;2.88;;;;;;;;;;4910810;29;20110;-88
2022/08/22 13:26:47;;;;;;;8.38;2.70;;;;;;;;;;4909899;29;20039;-88
2022/08/22 13:29:18;;;;;;;7.82;2.22;;;;;;;;;;4917424;29;20032;-87
2022/08/22 13:31:43;;;;;;;9.48;3.05;;;;;;;;;;4964519;28;20023;-88
2022/08/22 13:34:41;;;;;;;10.05;2.72;;;;;;;;;;4929389;29;20030;-88
2022/08/22 13:37:10;;;;;;;10.15;3.05;;;;;;;;;;4912005;29;20050;-88
2022/08/22 13:39:37;;;;;;;9.63;2.65;;;;;;;;;;4894250;29;20032;-88
2022/08/22 13:42:04;;;;;;;11.27;2.97;;;;;;;;;;4913051;29;20040;-89
2022/08/22 13:44:39;;;;;;;9.35;3.10;;;;;;;;;;4911970;29;20274;-88
2022/08/22 13:47:09;;;;;;;12.40;3.28;;;;;;;;;;4914870;29;20064;-88
2022/08/22 13:49:39;;;;;;;10.57;2.83;;;;;;;;;;4920221;29;20412;-88
2022/08/22 13:52:20;;;;;;;9.45;2.60;;;;;;;;;;4918995;29;20024;-88
2022/08/22 13:54:50;;;;;;;10.00;2.55;;;;;;;;;;4915821;29;20039;-88
2022/08/22 13:57:19;;;;;;;11.98;2.50;;;;;;;;;;4923239;29;20031;-87
2022/08/22 14:00:11;;;;;;;8.18;2.90;;;;;;;;;;4932323;29;20035;-88
2022/08/22 14:03:02;;;;;;;11.48;3.00;;;;;;;;;;4944490;28;20035;-86
2022/08/22 14:05:34;;;;;;;29.02;5.63;;;;;;;;;;4922092;29;20056;-86
2022/08/22 14:08:24;;;;;;;7.75;2.55;;;;;;;;;;4931409;29;20030;-88
2022/08/22 14:10:56;;;;;;;9.45;2.53;;;;;;;;;;4906914;29;20088;-86
2022/08/22 14:13:28;;;;;;;11.85;3.72;;;;;;;;;;4912968;29;20393;-86
2022/08/22 14:15:58;;;;;;;11.20;3.33;;;;;;;;;;4940231;28;20123;-85
2022/08/22 14:18:26;;;;;;;10.63;2.65;;;;;;;;;;4901578;29;20103;-84
2022/08/22 14:20:52;;;;;;;12.27;3.10;;;;;;;;;;4916454;29;20035;-85
2022/08/22 14:23:22;;;;;;;9.25;2.63;;;;;;;;;;4904085;29;20490;-85
2022/08/22 14:25:47;;;;;;;6.13;1.98;;;;;;;;;;4898080;29;20097;-85
2022/08/22 14:28:23;;;;;;;9.45;2.72;;;;;;;;;;4928840;29;20031;-85
2022/08/22 14:31:00;;;;;;;13.40;2.70;;;;;;;;;;4903642;29;20042;-85
2022/08/22 14:33:52;;;;;;;8.13;2.50;;;;;;;;;;4935466;29;20138;-86
2022/08/22 14:36:22;;;;;;;12.18;3.88;;;;;;;;;;4914705;29;20039;-85
2022/08/22 14:38:58;;;;;;;9.60;2.53;;;;;;;;;;4929469;29;20055;-84
2022/08/22 14:41:29;;;;;;;10.93;2.80;;;;;;;;;;4914602;29;20558;-84
2022/08/22 14:44:26;;;;;;;11.83;2.50;;;;;;;;;;4923421;29;20524;-84
2022/08/22 14:46:55;;;;;;;8.63;2.80;;;;;;;;;;4897374;29;20056;-85
2022/08/22 14:49:43;;;;;;;11.10;3.00;;;;;;;;;;4929092;29;20028;-84
2022/08/22 14:52:10;;;;;;;6.38;2.67;;;;;;;;;;4926950;29;20310;-86
2022/08/22 14:54:36;;;;;;;11.00;3.30;;;;;;;;;;4917877;29;20028;-85
2022/08/22 14:57:04;;;;;;;8.43;2.67;;;;;;;;;;4893885;29;20036;-85
2022/08/22 14:59:36;;;;;;;7.50;3.03;;;;;;;;;;4863278;29;20071;-85
2022/08/22 15:02:06;;;;;;;11.93;2.67;;;;;;;;;;4901274;29;20066;-85
2022/08/22 15:04:40;;;;;;;9.70;2.60;;;;;;;;;;4876144;29;20092;-85
2022/08/22 15:07:06;;;;;;;8.27;2.60;;;;;;;;;;4878525;29;20167;-84
2022/08/22 15:09:42;;;;;;;8.52;2.70;;;;;;;;;;4912994;29;20032;-85
2022/08/22 15:12:27;;;;;;;9.30;3.08;;;;;;;;;;4896686;29;20036;-86
2022/08/22 15:14:58;;;;;;;10.27;2.97;;;;;;;;;;4877699;29;20455;-85
2022/08/22 15:17:53;;;;;;;12.48;2.88;;;;;;;;;;4894446;29;20036;-85
2022/08/22 15:20:30;;;;;;;11.82;3.25;;;;;;;;;;4866397;29;20044;-85
2022/08/22 15:22:59;;;;;;;13.73;3.80;;;;;;;;;;4874698;29;20039;-85
2022/08/22 15:25:28;;;;;;;10.07;3.17;;;;;;;;;;4878210;29;20038;-85
2022/08/22 15:27:56;;;;;;;8.88;3.03;;;;;;;;;;4877563;29;20031;-86
2022/08/22 15:30:39;;;;;;;9.10;2.70;;;;;;;;;;4892719;29;20020;-86
2022/08/22 15:33:19;;;;;;;8.48;2.60;;;;;;;;;;4893745;29;20382;-84
2022/08/22 15:35:45;;;;;;;11.40;3.72;;;;;;;;;;4874947;29;20048;-86
2022/08/22 15:38:27;;;;;;;12.13;3.00;;;;;;;;;;4887560;29;20040;-87